Time;durP1;ratioP1;P1;durP2;ratioP2;P2;SDS_P1;SDS_P2;PMS_P1;PMS_P2;Temp;Humidity;BMP_temperature;BMP_pressure;BME280_temperature;BME280_humidity;BME280_pressure;Samples;Min_cycle;Max_cycle;Signal;HPM_P1;HPM_P2
2020/12/25 00:01:06;;;;;;;23.60;13.98;;;;;;;13.88;61.65;101040.92;1723894;82;21285;-47
2020/12/25 00:03:36;;;;;;;24.87;15.45;;;;;;;13.92;61.56;101042.53;1724104;83;21124;-48
2020/12/25 00:06:05;;;;;;;20.02;13.98;;;;;;;13.94;61.45;101044.66;1723751;83;21164;-46
2020/12/25 00:08:33;;;;;;;21.02;14.00;;;;;;;13.95;61.45;101050.27;1741144;82;21165;-46
2020/12/25 00:11:02;;;;;;;22.80;15.15;;;;;;;13.95;61.50;101048.13;1739366;82;21291;-46
2020/12/25 00:13:30;;;;;;;26.65;16.52;;;;;;;14.02;61.46;101049.64;1738061;82;21716;-47
2020/12/25 00:15:58;;;;;;;23.15;15.85;;;;;;;13.99;61.60;101044.08;1738382;82;21577;-47
2020/12/25 00:18:27;;;;;;;26.17;16.65;;;;;;;13.98;61.79;101034.50;1737950;80;21180;-46
2020/12/25 00:20:56;;;;;;;25.17;17.07;;;;;;;14.02;61.65;101033.49;1732589;82;21160;-46
2020/12/25 00:23:24;;;;;;;30.52;17.55;;;;;;;14.03;61.75;101043.07;1741320;82;21125;-46
2020/12/25 00:25:53;;;;;;;37.30;18.95;;;;;;;13.91;62.25;101040.80;1739427;82;21128;-46
2020/12/25 00:28:21;;;;;;;24.65;18.15;;;;;;;14.10;61.69;101028.88;1738288;82;21715;-47
2020/12/25 00:30:49;;;;;;;34.43;19.73;;;;;;;14.14;61.50;101033.10;1738063;82;21287;-46
2020/12/25 00:33:18;;;;;;;31.80;17.37;;;;;;;14.16;61.58;101029.12;1737624;82;21318;-47
2020/12/25 00:35:46;;;;;;;28.00;17.85;;;;;;;13.93;62.34;101025.92;1738472;82;21121;-46
2020/12/25 00:38:15;;;;;;;28.15;17.82;;;;;;;13.79;62.81;101035.95;1738738;82;21174;-46
2020/12/25 00:40:43;;;;;;;28.20;17.60;;;;;;;13.71;63.01;101030.97;1724221;83;21144;-47
2020/12/25 00:43:12;;;;;;;31.17;16.93;;;;;;;13.68;63.16;101032.83;1727033;82;21664;-47
2020/12/25 00:45:41;;;;;;;30.02;17.45;;;;;;;13.65;63.31;101028.98;1737973;82;21152;-47
2020/12/25 00:48:09;;;;;;;30.70;18.30;;;;;;;13.65;63.34;101030.28;1738757;82;21188;-47
2020/12/25 00:50:39;;;;;;;26.65;16.73;;;;;;;13.64;63.37;101033.34;1738173;82;21298;-47
2020/12/25 00:53:07;;;;;;;27.60;17.02;;;;;;;13.68;63.24;101028.91;1744627;82;21121;-46
2020/12/25 00:55:36;;;;;;;33.78;17.00;;;;;;;13.69;63.25;101037.14;1738242;82;21151;-46
2020/12/25 00:58:05;;;;;;;30.40;15.80;;;;;;;13.66;63.34;101026.79;1738111;82;21609;-46
2020/12/25 01:00:33;;;;;;;26.02;15.83;;;;;;;13.66;63.45;101024.17;1738304;82;21185;-47
2020/12/25 01:03:01;;;;;;;28.55;16.90;;;;;;;13.71;63.17;101026.18;1740772;82;21144;-47
2020/12/25 01:05:30;;;;;;;30.45;16.93;;;;;;;13.70;63.10;101021.87;1734311;82;21168;-46
2020/12/25 01:07:58;;;;;;;25.55;15.93;;;;;;;13.68;63.16;101023.20;1741411;82;21150;-46
2020/12/25 01:10:28;;;;;;;28.90;16.40;;;;;;;13.67;63.21;101019.33;1741231;82;21105;-47
2020/12/25 01:12:58;;;;;;;27.73;15.10;;;;;;;13.73;63.11;101015.22;1739803;82;21617;-46
2020/12/25 01:15:26;;;;;;;27.22;14.90;;;;;;;13.75;62.98;101005.12;1739045;82;21208;-46
2020/12/25 01:17:55;;;;;;;26.37;15.30;;;;;;;13.81;62.66;100989.23;1724105;82;21314;-47
2020/12/25 01:20:23;;;;;;;28.90;15.08;;;;;;;13.91;62.21;100997.64;1728175;82;21176;-47
2020/12/25 01:22:52;;;;;;;24.50;13.75;;;;;;;13.94;61.99;100993.64;1749993;82;21184;-47
2020/12/25 01:25:21;;;;;;;30.40;15.68;;;;;;;13.94;61.89;100991.02;1740305;82;21302;-46
2020/12/25 01:27:49;;;;;;;27.65;15.88;;;;;;;14.01;61.57;100989.94;1738584;82;21124;-47
2020/12/25 01:30:19;;;;;;;31.37;15.40;;;;;;;14.05;61.33;100986.31;1737961;82;21541;-46
2020/12/25 01:32:47;;;;;;;27.70;15.60;;;;;;;14.01;61.20;100988.63;1723915;83;21168;-46
2020/12/25 01:35:16;;;;;;;28.52;15.75;;;;;;;14.01;61.17;100988.63;1723902;82;21153;-46
2020/12/25 01:37:45;;;;;;;26.37;15.72;;;;;;;14.12;60.83;100986.50;1733494;82;21152;-46
2020/12/25 01:40:13;;;;;;;30.45;15.45;;;;;;;14.18;60.64;100984.16;1744947;82;21597;-46
2020/12/25 01:42:42;;;;;;;23.57;15.53;;;;;;;14.23;60.39;100988.33;1738190;82;21589;-47
2020/12/25 01:45:10;;;;;;;33.35;15.83;;;;;;;14.33;59.96;100984.53;1738532;82;21141;-46
2020/12/25 01:47:41;;;;;;;26.33;14.85;;;;;;;14.44;59.59;100985.48;1734311;82;21109;-46
2020/12/25 01:50:13;;;;;;;28.67;15.35;;;;;;;14.78;58.53;100985.16;1726911;80;21152;-47
2020/12/25 01:52:41;;;;;;;30.30;16.35;;;;;;;14.95;58.04;100981.48;1740241;80;21172;-47
2020/12/25 01:55:10;;;;;;;33.42;15.65;;;;;;;15.70;55.83;100978.67;1738454;82;21152;-46
2020/12/25 01:57:39;;;;;;;29.37;16.37;;;;;;;12.25;65.43;100991.47;1730604;82;21156;-47
2020/12/25 02:00:07;;;;;;;30.02;16.27;;;;;;;11.72;67.60;100988.41;1734295;82;21156;-48
2020/12/25 02:02:37;;;;;;;37.20;16.90;;;;;;;11.57;68.46;100986.09;1741306;82;21145;-47
2020/12/25 02:05:06;;;;;;;30.90;17.10;;;;;;;11.51;68.83;100986.23;1741266;82;21183;-46
2020/12/25 02:07:34;;;;;;;28.40;16.52;;;;;;;11.47;69.02;100982.84;1737274;82;21172;-46
2020/12/25 02:10:03;;;;;;;35.33;16.95;;;;;;;11.42;69.00;100977.73;1731348;82;21170;-47
2020/12/25 02:12:32;;;;;;;29.63;16.32;;;;;;;11.36;69.22;100978.30;1738611;82;21180;-47
2020/12/25 02:15:00;;;;;;;25.57;15.25;;;;;;;11.29;69.32;100980.64;1739258;82;21141;-46
2020/12/25 02:17:28;;;;;;;32.05;16.95;;;;;;;11.23;69.63;100985.98;1741229;82;21589;-46
2020/12/25 02:19:56;;;;;;;38.88;16.10;;;;;;;11.21;69.80;100984.69;1741739;82;21113;-46
2020/12/25 02:22:24;;;;;;;33.25;17.62;;;;;;;11.17;69.78;100975.22;1739352;82;21180;-45
2020/12/25 02:24:53;;;;;;;30.12;15.63;;;;;;;11.11;70.07;100981.86;1739415;82;21318;-46
2020/12/25 02:27:21;;;;;;;27.10;16.25;;;;;;;11.08;70.34;100978.03;1740519;82;21192;-47
2020/12/25 02:29:49;;;;;;;27.15;15.70;;;;;;;11.09;70.47;100970.62;1741259;82;21156;-45
2020/12/25 02:32:17;;;;;;;35.17;16.25;;;;;;;11.09;70.55;100971.92;1741370;82;21181;-46
2020/12/25 02:34:45;;;;;;;32.98;17.05;;;;;;;11.08;70.43;100967.62;1740538;82;21157;-46
2020/12/25 02:37:14;;;;;;;34.30;17.77;;;;;;;11.06;70.53;100968.09;1737787;82;21121;-46
2020/12/25 02:39:42;;;;;;;33.05;16.07;;;;;;;11.02;70.87;100965.14;1738180;82;21168;-46
2020/12/25 02:42:11;;;;;;;24.12;15.55;;;;;;;11.02;71.02;100966.44;1738453;82;21141;-46
2020/12/25 02:44:43;;;;;;;29.57;15.15;;;;;;;11.02;71.14;100963.84;1737836;82;21171;-47
2020/12/25 02:47:12;;;;;;;29.87;16.45;;;;;;;11.01;71.23;100960.80;1738192;82;21220;-47
2020/12/25 02:49:42;;;;;;;24.30;14.35;;;;;;;10.98;71.55;100966.52;1735303;82;21152;-47
2020/12/25 02:52:10;;;;;;;37.10;16.77;;;;;;;10.99;71.51;100962.58;1741268;82;21153;-46
2020/12/25 02:54:39;;;;;;;31.20;16.42;;;;;;;10.98;71.58;100967.39;1741183;82;21295;-47
2020/12/25 02:57:06;;;;;;;31.23;16.70;;;;;;;10.99;71.62;100963.88;1739591;82;21349;-46
2020/12/25 02:59:35;;;;;;;24.55;15.43;;;;;;;11.00;71.73;100965.61;1738990;82;21196;-46
2020/12/25 03:02:04;;;;;;;28.67;16.25;;;;;;;11.01;71.85;100960.80;1723895;83;21136;-47
2020/12/25 03:04:32;;;;;;;26.97;15.90;;;;;;;11.03;72.07;100965.53;1743865;82;21180;-46
2020/12/25 03:07:00;;;;;;;26.25;15.98;;;;;;;11.03;72.17;100969.44;1741332;82;21180;-46
2020/12/25 03:09:28;;;;;;;27.10;16.25;;;;;;;11.05;72.28;100971.56;1740616;82;21144;-47
2020/12/25 03:11:56;;;;;;;29.75;16.82;;;;;;;11.09;72.13;100965.41;1723828;83;21117;-46
2020/12/25 03:14:25;;;;;;;25.05;15.43;;;;;;;11.12;72.20;100967.97;1734990;82;21187;-46
2020/12/25 03:16:53;;;;;;;30.70;16.50;;;;;;;11.14;72.11;100967.48;1728902;82;21589;-47
2020/12/25 03:19:21;;;;;;;36.90;17.27;;;;;;;11.15;71.96;100965.28;1741222;82;21124;-47
2020/12/25 03:21:50;;;;;;;28.30;16.27;;;;;;;11.16;71.95;100956.59;1724929;82;21569;-47
2020/12/25 03:24:18;;;;;;;34.30;18.10;;;;;;;11.18;71.62;100949.61;1740540;82;21194;-47
2020/12/25 03:26:46;;;;;;;36.15;18.50;;;;;;;11.16;71.48;100934.45;1741480;82;21133;-46
2020/12/25 03:29:14;;;;;;;33.98;17.15;;;;;;;11.14;71.45;100927.12;1741208;82;21157;-47
2020/12/25 03:31:42;;;;;;;37.70;17.80;;;;;;;11.12;71.23;100930.20;1739344;82;21168;-47
2020/12/25 03:34:11;;;;;;;30.72;16.35;;;;;;;11.09;71.39;100927.65;1738520;82;21135;-46
2020/12/25 03:36:39;;;;;;;30.12;16.70;;;;;;;11.08;71.40;100924.65;1737506;82;21298;-46
2020/12/25 03:39:08;;;;;;;26.95;15.23;;;;;;;11.08;71.50;100916.84;1738463;82;21604;-47
2020/12/25 03:41:36;;;;;;;28.65;15.78;;;;;;;11.07;71.49;100909.90;1737964;82;21116;-47
2020/12/25 03:44:04;;;;;;;31.57;17.15;;;;;;;11.07;71.47;100896.88;1738895;82;21556;-46
2020/12/25 03:46:36;;;;;;;24.57;15.72;;;;;;;11.06;71.31;100892.58;1723784;83;21294;-47
2020/12/25 03:49:05;;;;;;;30.17;16.10;;;;;;;11.12;71.00;100891.58;1727801;82;21172;-46
2020/12/25 03:51:33;;;;;;;24.87;15.30;;;;;;;11.13;70.84;100891.53;1738144;82;21137;-47
2020/12/25 03:54:01;;;;;;;27.30;15.98;;;;;;;11.13;70.79;100895.44;1739806;82;21176;-46
2020/12/25 03:56:29;;;;;;;29.63;16.23;;;;;;;11.10;70.85;100890.31;1740352;80;21199;-47
2020/12/25 03:58:57;;;;;;;29.65;16.12;;;;;;;11.03;71.01;100885.25;1741181;82;21604;-46
2020/12/25 04:01:25;;;;;;;28.87;16.12;;;;;;;11.05;70.85;100878.27;1740007;82;21109;-46
2020/12/25 04:03:54;;;;;;;28.47;15.55;;;;;;;11.03;70.88;100878.30;1738176;82;21141;-47
2020/12/25 04:06:22;;;;;;;34.58;17.00;;;;;;;10.99;70.89;100889.67;1738380;82;21141;-46
2020/12/25 04:08:50;;;;;;;25.68;15.78;;;;;;;10.99;70.97;100896.19;1738014;82;21188;-46
2020/12/25 04:11:19;;;;;;;29.02;17.10;;;;;;;11.00;70.79;100901.82;1738598;82;21290;-46
2020/12/25 04:13:47;;;;;;;36.33;17.45;;;;;;;10.98;70.67;100904.03;1710946;82;21321;-46
2020/12/25 04:16:16;;;;;;;26.27;16.48;;;;;;;10.96;70.69;100906.68;1740548;81;22395;-46
2020/12/25 04:18:44;;;;;;;29.25;17.37;;;;;;;10.92;70.80;100915.41;1741436;82;21139;-46
2020/12/25 04:21:12;;;;;;;28.90;17.07;;;;;;;10.94;70.87;100918.01;1737479;82;21294;-47
2020/12/25 04:23:41;;;;;;;30.92;15.50;;;;;;;10.95;70.68;100915.36;1723819;83;21290;-46
2020/12/25 04:26:11;;;;;;;29.45;16.30;;;;;;;10.97;70.53;100916.19;1732260;82;21148;-46
2020/12/25 04:28:39;;;;;;;27.73;15.90;;;;;;;10.98;70.46;100915.31;1744694;82;21282;-46
2020/12/25 04:31:08;;;;;;;27.15;16.40;;;;;;;10.97;70.45;100917.49;1723919;83;21156;-46
2020/12/25 04:33:36;;;;;;;32.17;16.52;;;;;;;10.97;70.38;100916.19;1730473;82;21172;-46
2020/12/25 04:36:05;;;;;;;28.20;16.12;;;;;;;10.96;70.36;100913.19;1740272;82;21144;-46
2020/12/25 04:38:34;;;;;;;29.85;16.55;;;;;;;10.96;70.36;100922.30;1738227;82;21156;-47
2020/12/25 04:41:06;;;;;;;28.80;16.00;;;;;;;10.96;70.43;100911.02;1738301;82;21120;-47
2020/12/25 04:43:34;;;;;;;32.00;17.60;;;;;;;10.94;70.47;100907.13;1732067;82;21570;-46
2020/12/25 04:46:03;;;;;;;28.70;17.00;;;;;;;10.93;70.47;100908.03;1741392;82;21200;-47
2020/12/25 04:48:32;;;;;;;33.90;16.70;;;;;;;10.93;70.36;100905.42;1741260;82;21283;-46
2020/12/25 04:51:00;;;;;;;28.07;16.62;;;;;;;10.92;70.22;100905.00;1740531;82;21126;-46
2020/12/25 04:53:30;;;;;;;31.12;16.77;;;;;;;10.91;70.17;100900.70;1737795;82;21541;-47
2020/12/25 04:55:58;;;;;;;28.70;17.20;;;;;;;10.87;70.15;100902.95;1730769;82;21172;-46
2020/12/25 04:58:27;;;;;;;32.55;17.57;;;;;;;10.87;70.04;100912.06;1740285;82;21169;-47
2020/12/25 05:01:07;;;;;;;33.88;16.27;;;;;;;10.85;70.03;100913.84;1737964;82;21168;-46
2020/12/25 05:03:41;;;;;;;30.92;17.12;;;;;;;10.83;69.96;100911.72;1685586;84;21217;-47
2020/12/25 05:06:17;;;;;;;29.50;15.80;;;;;;;10.86;69.91;100919.45;1810120;79;22853;-46
2020/12/25 05:08:50;;;;;;;27.58;16.12;;;;;;;10.80;70.00;100922.64;1780463;80;21570;-46
2020/12/25 05:11:20;;;;;;;30.43;16.57;;;;;;;10.80;69.95;100924.77;1777697;80;21128;-46
2020/12/25 05:13:54;;;;;;;33.73;17.67;;;;;;;10.79;69.86;100926.98;1773598;80;21188;-47
2020/12/25 05:16:22;;;;;;;33.42;17.50;;;;;;;10.76;69.92;100923.12;1780019;80;21148;-47
2020/12/25 05:18:52;;;;;;;26.23;16.45;;;;;;;10.74;69.88;100914.95;1777752;80;21167;-47
2020/12/25 05:21:21;;;;;;;33.53;18.07;;;;;;;10.70;69.97;100905.03;1778767;80;21157;-47
2020/12/25 05:23:50;;;;;;;34.85;18.32;;;;;;;10.67;70.11;100903.80;1778355;80;21577;-47
2020/12/25 05:26:18;;;;;;;30.48;17.42;;;;;;;10.62;70.18;100894.78;1780784;80;21596;-46
2020/12/25 05:28:48;;;;;;;31.17;17.20;;;;;;;10.58;70.29;100903.97;1780090;80;21148;-47
2020/12/25 05:31:19;;;;;;;30.75;16.87;;;;;;;10.53;70.51;100895.41;1778784;80;21184;-47
2020/12/25 05:33:48;;;;;;;32.53;18.30;;;;;;;10.50;70.71;100904.56;1771006;80;21203;-47
2020/12/25 05:36:17;;;;;;;31.37;17.15;;;;;;;10.49;70.82;100915.84;1777013;80;21152;-47
2020/12/25 05:38:49;;;;;;;25.15;16.48;;;;;;;10.48;70.89;100912.41;1777158;80;21156;-47
2020/12/25 05:41:17;;;;;;;36.63;17.80;;;;;;;10.50;70.79;100913.23;1780963;80;21124;-47
2020/12/25 05:43:50;;;;;;;29.25;17.77;;;;;;;10.51;70.82;100917.97;1762724;80;21179;-47
2020/12/25 05:46:18;;;;;;;29.25;16.42;;;;;;;10.54;70.88;100919.23;1780880;80;21152;-48
2020/12/25 05:48:49;;;;;;;32.85;17.67;;;;;;;10.57;70.80;100916.58;1780052;80;21283;-47
2020/12/25 05:51:21;;;;;;;30.17;16.52;;;;;;;10.58;70.68;100912.64;1654840;85;21224;-47
2020/12/25 05:53:49;;;;;;;31.50;17.98;;;;;;;10.57;70.54;100917.88;1672983;85;21184;-47
2020/12/25 05:56:18;;;;;;;27.55;16.27;;;;;;;10.52;70.64;100911.46;1651805;85;21354;-46
2020/12/25 05:58:47;;;;;;;24.57;16.05;;;;;;;10.51;70.72;100912.77;1669516;85;21327;-48
2020/12/25 06:01:22;;;;;;;38.38;18.57;;;;;;;10.57;70.64;100909.61;1768769;79;22701;-46
2020/12/25 06:03:50;;;;;;;29.15;18.57;;;;;;;10.52;70.59;100904.09;1731059;82;21117;-46
2020/12/25 06:06:20;;;;;;;31.30;17.73;;;;;;;10.50;70.62;100905.87;1738373;82;21278;-46
2020/12/25 06:08:57;;;;;;;29.87;17.30;;;;;;;10.50;70.66;100913.67;1710485;82;21195;-46
2020/12/25 06:11:30;;;;;;;28.70;16.02;;;;;;;10.52;70.68;100911.90;1725270;82;21125;-46
2020/12/25 06:13:59;;;;;;;32.90;17.52;;;;;;;10.53;70.61;100917.53;1731505;82;21164;-46
2020/12/25 06:16:28;;;;;;;29.65;16.85;;;;;;;10.56;70.50;100926.56;1738583;82;21291;-47
2020/12/25 06:19:07;;;;;;;32.42;17.52;;;;;;;10.55;70.45;100927.47;1738412;82;21173;-48
2020/12/25 06:21:56;;;;;;;29.55;16.42;;;;;;;10.56;70.35;100927.42;1645175;86;21221;-47
2020/12/25 06:24:35;;;;;;;27.60;16.32;;;;;;;10.57;70.18;100930.89;1657511;86;21172;-46
2020/12/25 06:27:05;;;;;;;30.92;18.00;;;;;;;10.58;70.14;100937.80;1642208;86;21224;-46
2020/12/25 06:29:34;;;;;;;34.73;18.05;;;;;;;10.59;70.05;100935.63;1662761;84;21217;-47
2020/12/25 06:32:02;;;;;;;33.38;18.02;;;;;;;10.61;69.95;100938.59;1655577;86;21181;-47
2020/12/25 06:34:47;;;;;;;27.98;16.40;;;;;;;10.66;69.91;100937.20;1766598;79;22926;-46
2020/12/25 06:37:16;;;;;;;26.02;15.30;;;;;;;10.65;69.82;100940.71;1743737;82;21161;-46
2020/12/25 06:39:51;;;;;;;28.73;17.20;;;;;;;10.67;69.72;100944.14;1727943;82;21577;-46
2020/12/25 06:42:33;;;;;;;28.62;15.83;;;;;;;10.70;69.55;100937.99;1745794;82;21147;-47
2020/12/25 06:45:04;;;;;;;30.62;17.32;;;;;;;10.71;69.54;100951.00;1741013;82;21600;-47
2020/12/25 06:47:37;;;;;;;25.25;15.68;;;;;;;10.72;69.54;100947.93;1715179;83;21198;-46
2020/12/25 06:50:13;;;;;;;35.20;16.40;;;;;;;10.73;69.61;100940.12;1714825;83;21172;-46
2020/12/25 06:53:00;;;;;;;26.80;15.95;;;;;;;10.75;69.64;100939.64;1712551;83;21220;-47
2020/12/25 06:55:42;;;;;;;35.05;17.75;;;;;;;10.77;69.57;100939.17;1715980;83;21188;-47
2020/12/25 06:58:18;;;;;;;29.75;16.73;;;;;;;10.82;69.56;100926.91;1771692;79;23494;-46
2020/12/25 07:00:52;;;;;;;27.10;16.62;;;;;;;10.80;69.42;100929.98;1745248;82;21589;-46
2020/12/25 07:03:22;;;;;;;30.30;16.30;;;;;;;10.80;69.36;100936.48;1733128;82;21565;-46
2020/12/25 07:05:50;;;;;;;26.37;16.50;;;;;;;10.85;69.29;100937.27;1691103;82;21216;-46
2020/12/25 07:08:28;;;;;;;29.20;16.23;;;;;;;10.87;69.03;100935.49;1739292;82;21291;-47
2020/12/25 07:11:07;;;;;;;29.55;16.62;;;;;;;10.90;68.98;100939.32;1658310;86;21283;-47
2020/12/25 07:13:41;;;;;;;29.65;15.45;;;;;;;10.96;68.82;100943.13;1804596;79;22934;-47
2020/12/25 07:16:09;;;;;;;25.48;16.73;;;;;;;10.94;68.89;100944.88;1785916;80;21140;-48
2020/12/25 07:18:37;;;;;;;30.30;17.32;;;;;;;10.97;68.77;100947.44;1778491;80;21235;-46
2020/12/25 07:21:08;;;;;;;29.00;17.15;;;;;;;10.98;68.77;100949.16;1727005;82;21131;-47
2020/12/25 07:23:48;;;;;;;30.02;16.85;;;;;;;11.00;68.80;100956.50;1725045;83;21180;-47
2020/12/25 07:26:17;;;;;;;27.77;15.55;;;;;;;11.01;68.93;100968.61;1722990;83;21180;-47
2020/12/25 07:28:46;;;;;;;26.45;17.48;;;;;;;11.02;68.89;100966.44;1720934;82;21164;-46
2020/12/25 07:31:16;;;;;;;25.50;16.27;;;;;;;11.06;68.75;100977.20;1749883;81;21112;-46
2020/12/25 07:33:44;;;;;;;29.23;17.48;;;;;;;11.08;68.73;100974.12;1725397;83;21156;-46
2020/12/25 07:36:14;;;;;;;28.32;16.57;;;;;;;11.11;68.64;100968.84;1725576;81;21180;-46
2020/12/25 07:38:42;;;;;;;37.00;17.10;;;;;;;11.14;68.65;100967.48;1752519;81;21139;-47
2020/12/25 07:41:11;;;;;;;32.73;17.52;;;;;;;11.19;68.42;100965.63;1720085;82;21290;-47
2020/12/25 07:43:39;;;;;;;28.55;15.50;;;;;;;11.22;68.22;100968.19;1746258;81;21168;-46
2020/12/25 07:46:13;;;;;;;31.00;17.70;;;;;;;11.25;68.11;100971.17;1725223;83;21167;-50
2020/12/25 07:48:42;;;;;;;27.22;16.60;;;;;;;11.28;68.00;100978.91;1750306;81;21625;-47
2020/12/25 07:51:10;;;;;;;27.07;15.50;;;;;;;11.31;67.84;100982.30;1724693;83;21139;-46
2020/12/25 07:53:39;;;;;;;33.18;17.50;;;;;;;11.33;67.75;100979.22;1737348;82;21160;-46
2020/12/25 07:56:07;;;;;;;31.00;16.62;;;;;;;11.35;67.49;100983.95;1706009;82;21168;-46
2020/12/25 07:58:37;;;;;;;28.05;15.60;;;;;;;11.34;67.30;100982.25;1685592;84;21176;-46
2020/12/25 08:01:07;;;;;;;35.40;15.90;;;;;;;11.33;67.19;100985.73;1700356;81;21152;-47
2020/12/25 08:03:35;;;;;;;25.10;15.63;;;;;;;11.30;67.31;100983.20;1702621;84;21212;-47
2020/12/25 08:06:03;;;;;;;33.78;16.55;;;;;;;11.29;67.39;100986.68;1724048;82;21142;-47
2020/12/25 08:08:35;;;;;;;24.67;15.65;;;;;;;11.29;67.29;100989.28;1719300;82;21138;-46
2020/12/25 08:11:03;;;;;;;25.60;15.28;;;;;;;11.30;67.34;100982.34;1726234;81;21211;-46
2020/12/25 08:13:34;;;;;;;25.27;16.15;;;;;;;11.34;67.39;100986.59;1725419;82;21139;-46
2020/12/25 08:16:02;;;;;;;27.35;14.78;;;;;;;11.36;67.18;100988.28;1700581;83;21193;-46
2020/12/25 08:18:30;;;;;;;28.77;15.85;;;;;;;11.38;67.30;100989.11;1761294;81;21295;-46
2020/12/25 08:21:01;;;;;;;31.73;16.10;;;;;;;11.42;67.16;100985.98;1724714;82;21310;-46
2020/12/25 08:23:36;;;;;;;29.95;15.48;;;;;;;11.46;66.95;100989.80;1769177;81;21585;-46
2020/12/25 08:26:04;;;;;;;25.77;14.13;;;;;;;11.44;66.93;100982.46;1704632;84;21156;-46
2020/12/25 08:28:32;;;;;;;25.88;15.60;;;;;;;11.44;66.77;100979.86;1777265;81;21165;-47
2020/12/25 08:31:16;;;;;;;22.25;14.35;;;;;;;11.43;67.01;100978.16;1709175;83;21293;-46
2020/12/25 08:33:54;;;;;;;22.45;14.23;;;;;;;11.48;67.14;100977.59;1810045;79;23463;-47
2020/12/25 08:36:24;;;;;;;26.50;14.60;;;;;;;11.48;66.82;100981.11;1783808;80;21604;-46
2020/12/25 08:38:54;;;;;;;33.63;15.75;;;;;;;11.51;66.72;100978.42;1772538;80;22341;-47
2020/12/25 08:41:26;;;;;;;31.35;15.40;;;;;;;11.50;66.65;100981.93;1776605;80;21289;-47
2020/12/25 08:43:56;;;;;;;30.08;14.78;;;;;;;11.50;66.57;100984.53;1777251;80;21120;-48
2020/12/25 08:46:24;;;;;;;23.15;14.65;;;;;;;11.50;66.67;100992.36;1774328;80;21156;-46
2020/12/25 08:48:52;;;;;;;25.05;14.58;;;;;;;11.53;66.64;100983.15;1780236;80;21141;-47
2020/12/25 08:51:20;;;;;;;31.17;16.85;;;;;;;11.55;66.60;100970.94;1776313;80;21148;-46
2020/12/25 08:53:53;;;;;;;27.20;13.88;;;;;;;11.55;66.61;100969.64;1779228;80;21188;-46
2020/12/25 08:56:24;;;;;;;31.65;15.45;;;;;;;11.55;66.53;100975.72;1780060;80;21164;-46
2020/12/25 08:59:06;;;;;;;29.27;15.90;;;;;;;11.53;66.76;100974.03;1776276;80;21144;-47
2020/12/25 09:01:37;;;;;;;35.15;16.62;;;;;;;11.55;66.96;100973.11;1776681;80;21160;-46
2020/12/25 09:04:15;;;;;;;40.20;18.05;;;;;;;11.61;66.95;100974.71;1768915;80;21612;-47
2020/12/25 09:06:44;;;;;;;48.02;17.67;;;;;;;11.66;66.81;100962.45;1736817;82;21769;-45
2020/12/25 09:09:14;;;;;;;41.63;18.48;;;;;;;11.71;66.63;100968.42;1747551;82;21171;-47
2020/12/25 09:11:42;;;;;;;45.78;18.05;;;;;;;11.73;66.43;100964.03;1738356;82;21191;-48
2020/12/25 09:14:10;;;;;;;35.65;18.32;;;;;;;11.76;66.22;100958.77;1741193;82;21238;-48
2020/12/25 09:16:39;;;;;;;37.50;15.23;;;;;;;11.76;66.21;100956.16;1742139;82;21147;-47
2020/12/25 09:19:07;;;;;;;26.40;15.08;;;;;;;11.76;66.09;100950.95;1742711;82;21111;-47
2020/12/25 09:21:36;;;;;;;30.17;16.07;;;;;;;11.75;65.99;100955.73;1743694;82;21226;-47
2020/12/25 09:24:04;;;;;;;25.45;13.55;;;;;;;11.72;66.00;100954.52;1734968;82;21284;-47
2020/12/25 09:26:32;;;;;;;21.90;13.98;;;;;;;11.73;65.97;100954.91;1746971;82;21312;-47
2020/12/25 09:29:01;;;;;;;18.17;12.25;;;;;;;11.73;65.96;100960.13;1735545;82;21102;-48
2020/12/25 09:31:29;;;;;;;23.70;13.85;;;;;;;11.75;66.09;100967.47;1741448;82;21358;-47
2020/12/25 09:33:57;;;;;;;27.48;13.83;;;;;;;11.79;66.04;100969.97;1741435;82;21619;-47
2020/12/25 09:36:26;;;;;;;26.27;14.85;;;;;;;11.86;65.92;100970.69;1740905;82;21134;-47
2020/12/25 09:38:55;;;;;;;21.52;12.88;;;;;;;11.90;65.86;100971.03;1740477;82;21614;-47
2020/12/25 09:41:23;;;;;;;24.80;13.88;;;;;;;11.95;65.81;100960.89;1736934;82;21197;-47
2020/12/25 09:43:52;;;;;;;26.70;13.70;;;;;;;12.01;65.77;100949.48;1743417;82;21152;-48
2020/12/25 09:46:20;;;;;;;34.25;15.20;;;;;;;12.05;65.77;100938.94;1742652;82;21138;-47
2020/12/25 09:48:50;;;;;;;38.90;17.77;;;;;;;12.12;65.51;100937.00;1740002;82;21583;-48
2020/12/25 09:51:25;;;;;;;44.20;18.40;;;;;;;12.17;65.30;100938.63;1741505;82;21150;-48
2020/12/25 09:53:53;;;;;;;38.83;15.55;;;;;;;12.20;65.11;100946.80;1744237;82;21285;-47
2020/12/25 09:56:22;;;;;;;36.60;15.55;;;;;;;12.22;65.01;100944.56;1748558;81;21184;-46
2020/12/25 09:58:50;;;;;;;29.20;15.58;;;;;;;12.24;65.00;100947.16;1774780;80;21164;-46
2020/12/25 10:01:19;;;;;;;39.15;17.12;;;;;;;12.25;64.88;100947.55;1769155;80;21167;-46
2020/12/25 10:03:47;;;;;;;30.80;16.45;;;;;;;12.27;64.82;100944.45;1776748;80;21159;-47
2020/12/25 10:06:20;;;;;;;37.38;16.90;;;;;;;12.31;64.62;100946.53;1778486;80;21318;-46
2020/12/25 10:08:48;;;;;;;23.75;14.00;;;;;;;12.28;64.35;100948.80;1778855;80;21188;-46
2020/12/25 10:11:21;;;;;;;25.52;14.20;;;;;;;12.21;64.35;100944.61;1761211;81;21310;-47
2020/12/25 10:13:49;;;;;;;33.20;15.68;;;;;;;12.18;64.39;100947.28;1777505;78;21136;-47
2020/12/25 10:16:18;;;;;;;29.87;15.63;;;;;;;12.15;64.58;100949.98;1782587;80;21184;-47
2020/12/25 10:18:46;;;;;;;39.45;16.87;;;;;;;12.13;64.74;100937.43;1765064;80;21325;-46
2020/12/25 10:21:20;;;;;;;34.63;15.98;;;;;;;12.13;64.65;100934.82;1790961;80;21128;-47
2020/12/25 10:23:49;;;;;;;24.47;13.48;;;;;;;12.09;64.44;100924.92;1761334;81;21159;-46
2020/12/25 10:26:17;;;;;;;24.32;13.30;;;;;;;12.04;64.33;100924.61;1779410;80;21121;-46
2020/12/25 10:28:45;;;;;;;23.42;13.32;;;;;;;11.97;64.42;100921.76;1779451;80;21270;-46
2020/12/25 10:31:14;;;;;;;22.17;13.38;;;;;;;11.88;64.70;100923.27;1777797;80;21112;-47
2020/12/25 10:33:42;;;;;;;28.57;14.30;;;;;;;11.87;64.79;100920.27;1766453;80;21156;-46
2020/12/25 10:36:12;;;;;;;21.42;14.20;;;;;;;11.85;64.96;100924.67;1735660;82;21174;-47
2020/12/25 10:38:41;;;;;;;21.17;13.55;;;;;;;11.84;65.09;100930.77;1748254;82;21149;-47
2020/12/25 10:41:09;;;;;;;24.95;13.62;;;;;;;11.84;65.16;100913.38;1739794;82;21154;-46
2020/12/25 10:43:38;;;;;;;31.37;15.50;;;;;;;11.87;65.30;100921.58;1740937;82;21351;-46
2020/12/25 10:46:07;;;;;;;30.50;15.55;;;;;;;11.91;65.34;100920.13;1740657;82;21154;-47
2020/12/25 10:48:35;;;;;;;27.25;15.28;;;;;;;11.97;65.31;100913.94;1736344;82;21336;-47
2020/12/25 10:51:03;;;;;;;36.08;16.80;;;;;;;12.02;65.13;100910.75;1737861;82;21289;-46
2020/12/25 10:53:31;;;;;;;27.52;15.18;;;;;;;12.03;64.96;100905.95;1734035;82;21308;-46
2020/12/25 10:55:59;;;;;;;28.20;13.78;;;;;;;12.05;64.84;100911.98;1737486;82;21164;-46
2020/12/25 10:58:27;;;;;;;23.47;14.43;;;;;;;12.09;64.85;100916.23;1737932;82;21315;-46
2020/12/25 11:00:56;;;;;;;20.75;14.07;;;;;;;12.11;64.67;100913.13;1740278;82;21170;-46
2020/12/25 11:03:26;;;;;;;24.98;13.93;;;;;;;12.12;64.66;100910.92;1740925;82;21170;-46
2020/12/25 11:05:54;;;;;;;20.50;12.93;;;;;;;12.14;64.66;100913.04;1740862;82;21344;-45
2020/12/25 11:08:23;;;;;;;20.75;13.13;;;;;;;12.15;64.62;100913.47;1737100;82;21724;-47
2020/12/25 11:10:51;;;;;;;19.75;12.43;;;;;;;12.17;64.58;100924.28;1727781;82;21202;-46
2020/12/25 11:13:19;;;;;;;22.05;14.03;;;;;;;12.19;64.49;100928.14;1740991;82;21166;-46
2020/12/25 11:15:48;;;;;;;23.80;14.23;;;;;;;12.18;64.60;100932.94;1740896;82;21173;-47
2020/12/25 11:18:16;;;;;;;24.35;14.03;;;;;;;12.19;64.64;100933.36;1739246;82;21181;-47
2020/12/25 11:20:45;;;;;;;19.48;13.13;;;;;;;12.19;64.75;100928.14;1738111;82;21182;-46